Time;durP1;ratioP1;P1;durP2;ratioP2;P2;SDS_P1;SDS_P2;PMS_P1;PMS_P2;Temp;Humidity;BMP_temperature;BMP_pressure;BME280_temperature;BME280_humidity;BME280_pressure;Samples;Min_cycle;Max_cycle;Signal;HPM_P1;HPM_P2
2021/04/28 04:12:00;;;;;;;1.10;1.10;;;4.90;91.10;;;;;;5289503;23;20259;-75
2021/04/28 04:14:28;;;;;;;1.10;1.10;;;4.90;91.40;;;;;;4993058;28;20239;-74
2021/04/28 04:16:55;;;;;;;1.10;1.10;;;4.90;91.40;;;;;;4993225;28;20207;-75
2021/04/28 04:19:22;;;;;;;1.10;1.10;;;5.00;91.80;;;;;;4993129;28;20637;-75
2021/04/28 04:21:49;;;;;;;1.00;1.00;;;5.10;91.50;;;;;;4992920;28;20219;-75
2021/04/28 04:24:19;;;;;;;1.10;1.10;;;5.30;91.70;;;;;;4993044;28;20572;-75
2021/04/28 04:26:46;;;;;;;1.10;1.10;;;5.30;91.10;;;;;;4992882;28;20207;-75
2021/04/28 04:29:14;;;;;;;1.00;1.00;;;5.40;91.10;;;;;;4993026;28;20200;-75
2021/04/28 04:31:41;;;;;;;1.00;1.00;;;5.50;90.90;;;;;;4993128;28;20223;-75
2021/04/28 04:34:08;;;;;;;1.00;1.00;;;5.50;90.70;;;;;;4992767;28;20207;-74
2021/04/28 04:36:35;;;;;;;1.07;1.07;;;;;;;;;;4993097;28;20246;-77
2021/04/28 04:39:03;;;;;;;1.00;1.00;;;5.70;90.60;;;;;;4982788;28;20204;-76
2021/04/28 04:41:30;;;;;;;0.90;0.90;;;5.80;90.40;;;;;;4972921;28;20325;-76
2021/04/28 04:43:57;;;;;;;1.00;1.00;;;5.90;90.20;;;;;;4972933;28;20232;-76
2021/04/28 04:46:25;;;;;;;0.90;0.90;;;6.10;90.00;;;;;;4973223;28;20204;-76
2021/04/28 04:48:52;;;;;;;1.07;1.07;;;5.90;90.10;;;;;;4973215;28;20251;-75
2021/04/28 04:51:19;;;;;;;0.90;0.90;;;5.90;90.20;;;;;;4973023;28;20306;-75
2021/04/28 04:53:46;;;;;;;1.00;1.00;;;5.80;90.40;;;;;;4972956;28;20212;-76
2021/04/28 04:56:13;;;;;;;0.90;0.90;;;5.70;91.30;;;;;;4975491;28;20255;-76
2021/04/28 04:58:39;;;;;;;1.10;1.10;;;5.80;91.20;;;;;;4977299;28;20208;-76
2021/04/28 05:01:06;;;;;;;1.00;1.00;;;5.80;90.80;;;;;;4977026;28;20224;-75
2021/04/28 05:03:34;;;;;;;0.90;0.90;;;5.90;90.80;;;;;;4977056;28;20220;-76
2021/04/28 05:06:01;;;;;;;0.80;0.80;;;6.10;90.20;;;;;;4976239;28;20304;-75
2021/04/28 05:08:28;;;;;;;1.00;1.00;;;6.10;90.20;;;;;;4991355;28;20204;-75
2021/04/28 05:10:55;;;;;;;0.90;0.90;;;6.10;89.80;;;;;;4978645;28;20610;-75
2021/04/28 05:13:22;;;;;;;1.00;1.00;;;6.10;89.10;;;;;;4976887;28;20625;-75
2021/04/28 05:15:50;;;;;;;0.80;0.80;;;6.40;89.40;;;;;;4976741;28;20621;-75
2021/04/28 05:18:16;;;;;;;0.80;0.80;;;6.70;87.40;;;;;;4976486;28;20208;-75
2021/04/28 05:20:45;;;;;;;0.80;0.80;;;6.80;85.80;;;;;;4977006;28;20224;-76
2021/04/28 05:23:12;;;;;;;0.90;0.90;;;6.80;86.20;;;;;;4976452;28;20232;-75
2021/04/28 05:25:39;;;;;;;1.00;1.00;;;6.90;86.50;;;;;;4976113;28;20201;-75
2021/04/28 05:28:06;;;;;;;0.80;0.80;;;7.10;87.60;;;;;;4976229;28;20205;-75
2021/04/28 05:30:33;;;;;;;0.90;0.90;;;7.20;86.40;;;;;;4976147;28;20229;-74
2021/04/28 05:33:00;;;;;;;0.90;0.90;;;7.30;87.70;;;;;;4976175;28;20542;-74
2021/04/28 05:35:27;;;;;;;0.90;0.90;;;7.40;86.00;;;;;;4974728;28;20205;-73
2021/04/28 05:37:55;;;;;;;0.80;0.80;;;7.80;84.00;;;;;;4974004;28;20213;-75
2021/04/28 05:40:23;;;;;;;0.80;0.80;;;8.00;94.50;;;;;;4974754;28;20251;-75
2021/04/28 05:42:50;;;;;;;0.80;0.80;;;7.90;83.40;;;;;;4975173;28;20228;-76
2021/04/28 05:45:17;;;;;;;0.77;0.77;;;8.10;81.30;;;;;;4975056;28;20658;-76
2021/04/28 05:47:44;;;;;;;0.80;0.80;;;8.40;77.50;;;;;;4975394;28;20267;-74
2021/04/28 05:50:14;;;;;;;0.80;0.80;;;8.70;90.30;;;;;;4975324;28;20208;-77
2021/04/28 05:52:41;;;;;;;0.70;0.70;;;8.90;75.00;;;;;;4975544;28;20252;-77
2021/04/28 05:55:11;;;;;;;0.80;0.80;;;9.10;71.60;;;;;;4975563;28;20204;-75
2021/04/28 05:57:39;;;;;;;0.70;0.70;;;9.30;70.40;;;;;;4975824;28;20207;-75
2021/04/28 06:00:08;;;;;;;0.70;0.70;;;9.50;69.70;;;;;;4974099;28;20726;-73
2021/04/28 06:02:35;;;;;;;0.70;0.70;;;9.70;70.20;;;;;;4975389;28;20241;-74
2021/04/28 06:05:02;;;;;;;0.70;0.70;;;9.70;68.70;;;;;;4975997;28;20212;-74
2021/04/28 06:07:29;;;;;;;0.60;0.60;;;9.80;67.60;;;;;;4975916;28;20624;-74
2021/04/28 06:09:56;;;;;;;0.70;0.70;;;10.00;68.10;;;;;;4976200;28;20677;-74
2021/04/28 06:12:24;;;;;;;0.70;0.70;;;10.10;67.20;;;;;;4975476;28;20280;-74
2021/04/28 06:14:51;;;;;;;0.70;0.70;;;10.30;66.70;;;;;;4975787;28;20201;-75
2021/04/28 06:17:18;;;;;;;0.60;0.60;;;10.30;82.00;;;;;;4976291;28;20264;-76
2021/04/28 06:19:45;;;;;;;0.60;0.60;;;10.30;66.80;;;;;;4976169;28;20797;-75
2021/04/28 06:22:12;;;;;;;0.60;0.60;;;10.40;66.50;;;;;;4975990;28;20229;-75
2021/04/28 06:24:39;;;;;;;0.68;0.68;;;10.40;65.10;;;;;;4975573;28;20225;-76
2021/04/28 06:27:07;;;;;;;0.75;0.75;;;10.60;65.00;;;;;;4975757;28;20208;-77
2021/04/28 06:29:34;;;;;;;0.70;0.70;;;10.70;65.00;;;;;;4976137;28;20209;-75
2021/04/28 06:32:01;;;;;;;0.60;0.60;;;10.80;64.30;;;;;;4976376;28;20275;-75
2021/04/28 06:34:30;;;;;;;0.60;0.60;;;10.90;64.70;;;;;;4974836;28;20200;-75
2021/04/28 06:36:56;;;;;;;0.70;0.70;;;11.00;63.90;;;;;;4973892;28;20205;-75
2021/04/28 06:39:23;;;;;;;0.73;0.73;;;11.10;64.20;;;;;;4975369;28;20215;-75
2021/04/28 06:41:50;;;;;;;0.60;0.60;;;11.10;64.00;;;;;;4975635;28;20275;-75
2021/04/28 06:44:17;;;;;;;0.73;0.73;;;11.20;62.90;;;;;;4974868;28;20260;-75
2021/04/28 06:46:45;;;;;;;0.60;0.60;;;11.20;63.90;;;;;;4975468;28;20208;-77
2021/04/28 06:49:12;;;;;;;0.70;0.70;;;11.30;62.90;;;;;;4975524;28;20207;-75
2021/04/28 06:51:39;;;;;;;0.60;0.60;;;11.30;63.30;;;;;;4976586;28;20272;-75
2021/04/28 06:54:06;;;;;;;0.60;0.60;;;11.50;63.30;;;;;;4974666;28;20204;-76
2021/04/28 06:56:33;;;;;;;0.60;0.60;;;11.50;62.30;;;;;;4975004;28;20205;-76
2021/04/28 06:59:00;;;;;;;0.60;0.60;;;11.70;62.70;;;;;;4974971;28;20212;-76
2021/04/28 07:01:27;;;;;;;0.60;0.60;;;11.70;62.30;;;;;;4974874;28;20221;-76
2021/04/28 07:03:55;;;;;;;0.60;0.60;;;11.70;62.40;;;;;;4974657;28;20227;-75
2021/04/28 07:06:22;;;;;;;0.63;0.63;;;11.70;62.60;;;;;;4974960;28;20320;-76
2021/04/28 07:08:49;;;;;;;0.60;0.60;;;11.80;62.70;;;;;;4974578;28;20201;-76
2021/04/28 07:11:16;;;;;;;0.60;0.60;;;12.00;62.70;;;;;;4974457;28;20595;-76
2021/04/28 07:13:43;;;;;;;0.60;0.60;;;12.00;63.00;;;;;;4974483;28;20654;-74
2021/04/28 07:16:10;;;;;;;0.50;0.50;;;12.10;64.20;;;;;;4974923;28;20215;-75
2021/04/28 07:18:37;;;;;;;0.60;0.60;;;12.20;63.80;;;;;;4974089;28;20291;-76
2021/04/28 07:21:05;;;;;;;0.60;0.60;;;12.30;65.40;;;;;;4974481;28;20224;-76
2021/04/28 07:23:32;;;;;;;0.60;0.60;;;12.40;64.60;;;;;;4974687;28;20287;-76
2021/04/28 07:25:59;;;;;;;0.50;0.50;;;12.60;65.10;;;;;;4974501;28;20256;-76
2021/04/28 07:28:26;;;;;;;0.60;0.60;;;12.60;64.60;;;;;;4974380;28;20223;-76
2021/04/28 07:30:53;;;;;;;0.60;0.60;;;12.70;65.30;;;;;;4974309;28;20275;-76
2021/04/28 07:33:20;;;;;;;0.50;0.50;;;12.80;64.20;;;;;;4974376;28;20248;-76
2021/04/28 07:35:47;;;;;;;0.60;0.60;;;13.00;65.40;;;;;;4973947;28;20208;-76
2021/04/28 07:38:15;;;;;;;0.50;0.50;;;13.10;64.90;;;;;;4974197;28;20262;-76
2021/04/28 07:40:42;;;;;;;0.50;0.50;;;13.10;64.40;;;;;;4974295;28;20275;-76
2021/04/28 07:43:09;;;;;;;0.50;0.50;;;13.10;64.30;;;;;;4973921;28;20247;-77
2021/04/28 07:45:35;;;;;;;0.50;0.50;;;13.20;64.90;;;;;;4979318;28;20208;-77
2021/04/28 07:48:05;;;;;;;0.50;0.50;;;13.20;64.70;;;;;;4984348;28;20200;-77
2021/04/28 07:50:32;;;;;;;0.50;0.50;;;13.40;64.90;;;;;;4983691;28;20224;-77
2021/04/28 07:52:59;;;;;;;0.50;0.50;;;13.60;65.40;;;;;;4991173;28;20255;-76
2021/04/28 07:55:27;;;;;;;0.57;0.57;;;13.70;64.80;;;;;;4989891;28;20200;-76
2021/04/28 07:57:54;;;;;;;0.50;0.50;;;13.70;64.50;;;;;;4992926;28;20204;-76
2021/04/28 08:00:22;;;;;;;0.50;0.50;;;13.80;85.50;;;;;;4992816;28;20215;-76
2021/04/28 08:02:49;;;;;;;0.50;0.50;;;13.90;66.50;;;;;;4984101;28;20704;-76
2021/04/28 08:05:16;;;;;;;0.50;0.50;;;13.80;65.60;;;;;;4981694;28;20221;-77
2021/04/28 08:07:43;;;;;;;0.50;0.50;;;14.00;65.80;;;;;;4981905;28;20239;-76
2021/04/28 08:10:11;;;;;;;0.50;0.50;;;14.00;64.90;;;;;;4983720;28;20197;-77
2021/04/28 08:12:39;;;;;;;0.50;0.50;;;14.10;73.40;;;;;;4981436;28;20205;-77
2021/04/28 08:15:08;;;;;;;0.50;0.50;;;14.20;64.50;;;;;;4982431;28;20660;-76
2021/04/28 08:17:35;;;;;;;0.50;0.50;;;14.30;65.30;;;;;;4983738;28;20204;-76
2021/04/28 08:20:04;;;;;;;0.43;0.43;;;14.30;65.00;;;;;;4982434;28;20196;-76
2021/04/28 08:22:33;;;;;;;0.50;0.50;;;14.30;65.80;;;;;;4981334;28;20697;-78
2021/04/28 08:25:01;;;;;;;0.50;0.50;;;14.40;65.10;;;;;;4986286;28;20575;-77
2021/04/28 08:27:28;;;;;;;0.40;0.40;;;14.50;65.30;;;;;;4982233;28;20695;-76
2021/04/28 08:29:56;;;;;;;0.40;0.40;;;14.50;65.50;;;;;;4980851;28;20197;-76
2021/04/28 08:32:23;;;;;;;0.50;0.50;;;14.60;65.80;;;;;;4983760;28;20324;-78
2021/04/28 08:34:51;;;;;;;0.40;0.40;;;14.60;64.80;;;;;;4984931;28;20783;-77
2021/04/28 08:37:18;;;;;;;0.50;0.50;;;14.60;64.70;;;;;;4984380;28;20207;-78
2021/04/28 08:39:46;;;;;;;0.50;0.50;;;14.50;64.60;;;;;;4987284;28;20228;-78
2021/04/28 08:42:13;;;;;;;0.50;0.50;;;14.50;64.90;;;;;;4990492;28;20213;-77
2021/04/28 08:44:40;;;;;;;0.50;0.50;;;14.50;65.70;;;;;;4985101;28;20229;-76
2021/04/28 08:47:08;;;;;;;0.50;0.50;;;14.60;65.30;;;;;;4985740;28;20211;-77
2021/04/28 08:49:35;;;;;;;0.50;0.50;;;14.50;65.00;;;;;;4987790;28;20192;-76
2021/04/28 08:52:03;;;;;;;0.40;0.40;;;14.60;65.10;;;;;;4981502;28;20319;-77
2021/04/28 08:54:46;;;;;;;0.50;0.50;;;14.60;65.10;;;;;;4981738;28;20211;-76
2021/04/28 08:57:13;;;;;;;0.40;0.40;;;14.60;65.30;;;;;;4981660;28;20681;-77
2021/04/28 08:59:40;;;;;;;0.40;0.40;;;14.60;64.80;;;;;;4982482;28;20210;-77
2021/04/28 09:02:16;;;;;;;0.50;0.50;;;14.70;65.00;;;;;;4982454;28;20227;-75
2021/04/28 09:05:03;;;;;;;0.50;0.50;;;14.80;65.10;;;;;;4980607;28;20216;-77
2021/04/28 09:07:31;;;;;;;0.50;0.50;;;14.80;64.80;;;;;;4981673;28;20200;-77
2021/04/28 09:10:03;;;;;;;0.40;0.40;;;14.90;65.10;;;;;;4982948;28;20223;-77
2021/04/28 09:12:30;;;;;;;0.50;0.50;;;15.00;64.10;;;;;;4983224;28;20231;-75
2021/04/28 09:14:57;;;;;;;0.50;0.50;;;14.90;64.60;;;;;;4981034;28;20200;-75
2021/04/28 09:17:25;;;;;;;0.50;0.50;;;14.90;64.90;;;;;;4972932;28;20197;-74
2021/04/28 09:20:13;;;;;;;0.40;0.40;;;15.10;64.60;;;;;;4972402;28;20205;-75
2021/04/28 09:22:40;;;;;;;0.50;0.50;;;15.30;64.90;;;;;;4972904;28;20274;-75
2021/04/28 09:25:07;;;;;;;0.50;0.50;;;15.20;64.50;;;;;;4972369;28;20282;-75
2021/04/28 09:27:35;;;;;;;0.40;0.40;;;15.30;63.70;;;;;;4982822;28;20200;-75
2021/04/28 09:30:06;;;;;;;0.50;0.50;;;15.40;64.00;;;;;;4983381;28;20208;-75
2021/04/28 09:32:36;;;;;;;0.40;0.40;;;15.50;63.90;;;;;;4991889;28;20315;-76
2021/04/28 09:35:13;;;;;;;0.45;0.45;;;15.60;62.70;;;;;;4992087;28;20206;-75
2021/04/28 09:37:51;;;;;;;0.30;0.30;;;15.70;64.00;;;;;;4975135;28;20287;-75
2021/04/28 09:40:18;;;;;;;0.43;0.43;;;15.50;77.30;;;;;;4984041;28;20200;-74
2021/04/28 09:42:53;;;;;;;0.30;0.30;;;15.60;63.70;;;;;;4975465;28;20201;-75
2021/04/28 09:45:37;;;;;;;0.40;0.40;;;15.70;63.50;;;;;;4973880;28;20756;-75
2021/04/28 09:48:06;;;;;;;0.50;0.50;;;15.80;63.40;;;;;;4976241;28;20205;-75
2021/04/28 09:50:33;;;;;;;0.50;0.50;;;15.90;64.00;;;;;;4976023;28;20228;-75
2021/04/28 09:53:00;;;;;;;0.40;0.40;;;15.80;64.30;;;;;;4976239;28;20208;-74
2021/04/28 09:55:28;;;;;;;0.30;0.30;;;16.00;64.00;;;;;;4976174;28;20188;-75
2021/04/28 09:57:54;;;;;;;0.30;0.30;;;16.10;65.20;;;;;;4976024;28;20204;-76
2021/04/28 10:00:23;;;;;;;0.30;0.30;;;15.80;77.80;;;;;;4978640;28;20243;-75
2021/04/28 10:02:52;;;;;;;0.30;0.30;;;16.10;63.80;;;;;;4992902;28;20665;-74
2021/04/28 10:05:26;;;;;;;0.40;0.40;;;16.30;63.70;;;;;;4981379;28;20655;-75
2021/04/28 10:08:07;;;;;;;0.30;0.30;;;16.40;63.70;;;;;;4975866;28;20673;-74
2021/04/28 10:10:34;;;;;;;0.30;0.30;;;16.40;63.50;;;;;;4978561;28;20247;-75
2021/04/28 10:13:01;;;;;;;0.30;0.30;;;16.50;63.80;;;;;;4994736;28;20258;-74
2021/04/28 10:15:28;;;;;;;0.50;0.50;;;16.50;63.20;;;;;;4987247;28;20239;-74
2021/04/28 10:17:56;;;;;;;0.40;0.40;;;16.60;64.50;;;;;;4978412;28;20394;-72
2021/04/28 10:20:24;;;;;;;0.40;0.40;;;16.80;80.00;;;;;;4975691;28;20219;-71
2021/04/28 10:22:55;;;;;;;0.40;0.40;;;16.80;63.50;;;;;;4983943;28;20279;-72
2021/04/28 10:25:23;;;;;;;0.30;0.30;;;16.90;61.20;;;;;;4980129;28;20224;-72
2021/04/28 10:27:50;;;;;;;0.43;0.43;;;16.80;61.50;;;;;;4986661;28;20242;-71
2021/04/28 10:30:17;;;;;;;0.40;0.40;;;16.60;77.60;;;;;;4984280;28;20205;-72
2021/04/28 10:32:44;;;;;;;0.40;0.40;;;16.80;61.90;;;;;;4985804;28;20200;-72
2021/04/28 10:35:16;;;;;;;0.30;0.30;;;16.80;62.10;;;;;;4984910;28;20235;-72
2021/04/28 10:37:49;;;;;;;0.30;0.30;;;17.00;62.00;;;;;;4985103;28;20201;-71
2021/04/28 10:40:18;;;;;;;0.30;0.30;;;16.80;77.50;;;;;;4985132;28;20203;-71
2021/04/28 10:42:46;;;;;;;0.30;0.30;;;17.00;62.10;;;;;;4985084;28;20211;-73
2021/04/28 10:45:30;;;;;;;0.30;0.30;;;17.10;61.50;;;;;;4982914;28;20279;-72
2021/04/28 10:47:57;;;;;;;0.30;0.30;;;17.10;62.20;;;;;;4985359;28;20192;-71
2021/04/28 10:50:27;;;;;;;0.40;0.40;;;17.30;77.30;;;;;;4984927;28;20252;-71
2021/04/28 10:52:59;;;;;;;0.30;0.30;;;17.20;62.20;;;;;;4984051;28;20628;-71
2021/04/28 10:55:53;;;;;;;0.40;0.40;;;17.30;61.20;;;;;;4984588;28;20262;-72
2021/04/28 10:58:46;;;;;;;0.40;0.40;;;17.40;60.90;;;;;;4984019;28;20205;-72
2021/04/28 11:01:18;;;;;;;0.30;0.30;;;17.30;61.10;;;;;;4984667;28;20283;-72
2021/04/28 11:03:48;;;;;;;0.40;0.40;;;17.40;61.60;;;;;;4984526;28;20611;-71
2021/04/28 11:06:38;;;;;;;0.30;0.30;;;17.40;60.50;;;;;;4983092;28;20304;-71
2021/04/28 11:09:09;;;;;;;0.30;0.30;;;17.50;61.00;;;;;;4984679;28;20205;-72
2021/04/28 11:11:45;;;;;;;0.30;0.30;;;17.60;60.50;;;;;;4983509;28;20802;-72
2021/04/28 11:14:27;;;;;;;0.30;0.30;;;17.60;61.60;;;;;;4984321;28;20199;-72
2021/04/28 11:17:26;;;;;;;0.30;0.30;;;17.70;60.00;;;;;;4984369;28;20196;-72
2021/04/28 11:19:55;;;;;;;0.40;0.40;;;17.70;60.20;;;;;;4984417;28;20279;-71
2021/04/28 11:22:28;;;;;;;0.30;0.30;;;17.80;59.20;;;;;;4983951;28;20217;-72
2021/04/28 11:25:08;;;;;;;0.30;0.30;;;17.80;59.60;;;;;;4984269;28;20216;-71
2021/04/28 11:28:10;;;;;;;0.30;0.30;;;17.80;61.00;;;;;;4987080;28;20250;-73
2021/04/28 11:30:43;;;;;;;0.30;0.30;;;17.90;60.10;;;;;;4991965;28;20364;-74
2021/04/28 11:33:15;;;;;;;0.30;0.30;;;18.00;59.40;;;;;;4992007;28;20266;-74
2021/04/28 11:35:44;;;;;;;0.40;0.40;;;18.00;61.00;;;;;;4993915;28;20208;-74
2021/04/28 11:38:13;;;;;;;0.30;0.30;;;18.10;60.20;;;;;;4993845;28;20204;-73
2021/04/28 11:40:52;;;;;;;0.30;0.30;;;18.20;59.50;;;;;;4992291;28;20274;-73
2021/04/28 11:43:21;;;;;;;0.30;0.30;;;18.20;59.50;;;;;;4974170;28;20204;-73
2021/04/28 11:45:49;;;;;;;0.20;0.20;;;18.40;59.50;;;;;;4973473;28;20228;-74
2021/04/28 11:48:17;;;;;;;0.30;0.30;;;18.40;59.90;;;;;;4975111;28;20204;-74
2021/04/28 11:50:51;;;;;;;0.30;0.30;;;18.40;58.90;;;;;;4993366;28;20231;-74
2021/04/28 11:53:18;;;;;;;0.30;0.30;;;18.50;58.60;;;;;;4992018;28;20255;-75
2021/04/28 11:55:46;;;;;;;0.30;0.30;;;18.60;58.30;;;;;;4982837;28;20188;-75
2021/04/28 11:58:26;;;;;;;0.30;0.30;;;18.70;58.50;;;;;;4984030;28;20254;-74
2021/04/28 12:01:13;;;;;;;0.20;0.20;;;18.60;58.30;;;;;;4989385;28;20215;-75
2021/04/28 12:03:55;;;;;;;0.30;0.30;;;18.70;58.00;;;;;;4986869;28;20808;-73
2021/04/28 12:06:33;;;;;;;0.30;0.30;;;18.70;57.50;;;;;;4992719;28;20208;-73
2021/04/28 12:09:07;;;;;;;0.20;0.20;;;;;;;;;;4992346;28;20231;-74
2021/04/28 12:11:34;;;;;;;0.30;0.30;;;18.90;56.30;;;;;;4992423;28;20221;-72
2021/04/28 12:14:04;;;;;;;0.20;0.20;;;;;;;;;;4992207;28;20188;-73
2021/04/28 12:16:32;;;;;;;0.20;0.20;;;19.10;54.40;;;;;;4989301;28;20227;-75
2021/04/28 12:19:07;;;;;;;0.20;0.20;;;19.30;56.00;;;;;;4989970;28;20266;-74
2021/04/28 12:21:34;;;;;;;0.30;0.30;;;19.40;55.90;;;;;;4992467;28;21717;-75
2021/04/28 12:24:01;;;;;;;0.20;0.20;;;19.40;56.30;;;;;;4984182;28;20694;-74
2021/04/28 12:26:28;;;;;;;0.20;0.20;;;19.50;54.50;;;;;;4990727;28;20204;-75
2021/04/28 12:28:55;;;;;;;0.20;0.20;;;19.60;54.40;;;;;;4992082;28;20580;-74
2021/04/28 12:31:46;;;;;;;0.20;0.20;;;19.70;54.40;;;;;;4992024;28;20254;-74
2021/04/28 12:34:17;;;;;;;0.20;0.20;;;19.60;54.60;;;;;;4992492;28;20219;-74
2021/04/28 12:36:45;;;;;;;0.30;0.30;;;19.60;54.50;;;;;;4992771;28;20207;-74
2021/04/28 12:39:24;;;;;;;0.30;0.30;;;19.60;56.10;;;;;;4992935;28;20250;-70
2021/04/28 12:41:51;;;;;;;0.20;0.20;;;19.80;54.80;;;;;;4992959;28;20618;-72
2021/04/28 12:44:18;;;;;;;0.30;0.30;;;20.00;53.40;;;;;;4992716;28;20250;-71
2021/04/28 12:46:47;;;;;;;0.20;0.20;;;20.10;53.00;;;;;;4992906;28;20200;-75
2021/04/28 12:49:15;;;;;;;0.30;0.30;;;20.30;53.50;;;;;;4991396;28;20200;-72
2021/04/28 12:51:44;;;;;;;0.20;0.20;;;20.30;52.60;;;;;;4992484;28;20278;-72
2021/04/28 12:54:11;;;;;;;0.30;0.30;;;20.30;52.70;;;;;;4992298;28;20552;-73
2021/04/28 12:56:40;;;;;;;0.30;0.30;;;20.10;52.80;;;;;;4986207;28;20200;-74
2021/04/28 12:59:18;;;;;;;0.30;0.30;;;20.30;52.90;;;;;;4973082;28;20208;-73
2021/04/28 13:01:56;;;;;;;0.20;0.20;;;20.40;52.20;;;;;;4973265;28;20229;-73
2021/04/28 13:04:24;;;;;;;0.20;0.20;;;20.60;52.90;;;;;;4972783;28;20215;-72
2021/04/28 13:07:12;;;;;;;0.20;0.20;;;20.80;52.50;;;;;;4972794;28;20781;-74
2021/04/28 13:09:41;;;;;;;0.30;0.30;;;21.00;50.10;;;;;;4973087;28;20204;-70
2021/04/28 13:12:09;;;;;;;0.30;0.30;;;21.30;50.80;;;;;;4972745;28;20301;-71
2021/04/28 13:14:46;;;;;;;0.20;0.20;;;21.40;51.10;;;;;;4973786;28;20201;-78
2021/04/28 13:17:15;;;;;;;0.30;0.30;;;21.50;49.70;;;;;;4981797;28;20192;-76
2021/04/28 13:19:43;;;;;;;0.30;0.30;;;21.60;49.20;;;;;;4977013;28;20230;-74
2021/04/28 13:22:14;;;;;;;0.20;0.20;;;21.50;49.70;;;;;;4976638;28;20228;-74
2021/04/28 13:24:46;;;;;;;0.20;0.20;;;21.60;49.50;;;;;;4976955;28;20224;-71
2021/04/28 13:27:16;;;;;;;0.20;0.20;;;21.70;48.50;;;;;;4976758;28;20200;-71
2021/04/28 13:29:58;;;;;;;0.30;0.30;;;21.70;48.80;;;;;;4977112;28;20204;-72
2021/04/28 13:32:31;;;;;;;0.30;0.30;;;21.60;49.10;;;;;;4976929;28;20225;-82
2021/04/28 13:35:20;;;;;;;0.20;0.20;;;21.50;50.00;;;;;;4978893;28;20275;-75
2021/04/28 13:38:00;;;;;;;0.20;0.20;;;21.60;50.20;;;;;;4985725;28;20211;-73
2021/04/28 13:40:32;;;;;;;0.20;0.20;;;21.60;65.50;;;;;;4986248;28;20208;-73
2021/04/28 13:43:02;;;;;;;0.20;0.20;;;21.50;50.20;;;;;;4989111;28;20474;-74
2021/04/28 13:45:29;;;;;;;0.20;0.20;;;21.50;49.20;;;;;;4981454;28;20271;-75
2021/04/28 13:47:57;;;;;;;0.20;0.20;;;21.60;49.60;;;;;;4983899;28;20558;-72
2021/04/28 13:50:24;;;;;;;0.30;0.30;;;21.70;64.90;;;;;;4987473;28;20200;-74
2021/04/28 13:52:51;;;;;;;0.20;0.20;;;21.70;49.70;;;;;;4977032;28;20263;-73
2021/04/28 13:55:18;;;;;;;0.20;0.20;;;21.80;48.30;;;;;;4980269;28;20199;-73
2021/04/28 13:57:45;;;;;;;0.20;0.20;;;21.70;48.30;;;;;;4984073;28;20197;-74
2021/04/28 14:00:16;;;;;;;0.30;0.30;;;21.50;48.00;;;;;;4986841;28;20216;-72
2021/04/28 14:02:44;;;;;;;0.20;0.20;;;21.30;48.30;;;;;;4986867;28;20199;-72
2021/04/28 14:05:14;;;;;;;0.30;0.30;;;21.20;48.80;;;;;;4983459;28;20220;-70
2021/04/28 14:07:42;;;;;;;0.20;0.20;;;21.20;48.30;;;;;;4984425;28;20724;-72
2021/04/28 14:10:12;;;;;;;0.20;0.20;;;21.10;47.60;;;;;;4985431;28;20196;-71
2021/04/28 14:12:39;;;;;;;0.20;0.20;;;21.10;48.70;;;;;;4995100;28;20212;-77
2021/04/28 14:15:07;;;;;;;0.28;0.28;;;21.20;49.00;;;;;;4994630;28;20200;-70
2021/04/28 14:17:34;;;;;;;0.20;0.20;;;21.40;48.30;;;;;;4995358;28;20259;-71
2021/04/28 14:20:01;;;;;;;0.30;0.30;;;21.50;47.70;;;;;;4994983;28;20216;-72
2021/04/28 14:22:29;;;;;;;0.30;0.30;;;21.60;47.20;;;;;;4994845;28;20712;-71
2021/04/28 14:24:56;;;;;;;0.20;0.20;;;21.80;47.60;;;;;;4994832;28;20230;-71
2021/04/28 14:27:24;;;;;;;0.20;0.20;;;;;;;;;;4994449;28;20204;-72
2021/04/28 14:29:51;;;;;;;0.10;0.10;;;23.40;69.50;;;;;;4994032;28;20207;-71
2021/04/28 14:32:30;;;;;;;0.10;0.10;;;;;;;;;;4983668;28;20748;-72
2021/04/28 14:34:57;;;;;;;0.20;0.20;;;23.90;43.00;;;;;;4987177;28;20287;-71
2021/04/28 14:37:29;;;;;;;0.20;0.20;;;24.30;43.60;;;;;;4987296;28;20255;-71
2021/04/28 14:39:56;;;;;;;0.10;0.10;;;25.00;41.30;;;;;;4990145;28;20204;-72
2021/04/28 14:42:23;;;;;;;0.13;0.13;;;25.20;41.10;;;;;;4985327;28;20220;-72
2021/04/28 14:44:55;;;;;;;0.10;0.10;;;25.20;40.80;;;;;;4975329;28;20209;-75
2021/04/28 14:47:22;;;;;;;0.10;0.10;;;25.20;41.10;;;;;;4975216;28;20204;-75
2021/04/28 14:49:49;;;;;;;0.20;0.20;;;;;;;;;;4975450;28;20205;-75
2021/04/28 14:52:16;;;;;;;0.10;0.10;;;25.00;40.00;;;;;;4975092;28;20794;-75
2021/04/28 14:54:44;;;;;;;0.15;0.15;;;25.00;40.80;;;;;;4974750;28;20679;-75
2021/04/28 14:57:11;;;;;;;0.10;0.10;;;24.90;41.00;;;;;;4974948;28;20200;-75
2021/04/28 14:59:38;;;;;;;0.20;0.20;;;24.80;40.10;;;;;;4975130;28;20255;-75
2021/04/28 15:02:05;;;;;;;0.20;0.20;;;24.60;40.50;;;;;;4975075;28;20690;-76
2021/04/28 15:04:33;;;;;;;0.10;0.10;;;24.50;40.20;;;;;;4974854;28;20329;-76
2021/04/28 15:07:00;;;;;;;0.10;0.10;;;24.70;40.40;;;;;;4975148;28;20189;-75
2021/04/28 15:09:27;;;;;;;0.20;0.20;;;24.80;39.90;;;;;;4974809;28;20220;-75
2021/04/28 15:11:55;;;;;;;0.10;0.10;;;24.10;39.30;;;;;;4974589;28;20287;-75
2021/04/28 15:14:23;;;;;;;0.20;0.20;;;24.40;39.70;;;;;;4974682;28;20200;-76
2021/04/28 15:16:50;;;;;;;0.15;0.15;;;24.40;40.10;;;;;;4974902;28;20209;-76
2021/04/28 15:19:17;;;;;;;0.10;0.10;;;24.70;39.70;;;;;;4974582;28;20240;-75
2021/04/28 15:21:47;;;;;;;0.10;0.10;;;25.00;40.10;;;;;;4974372;28;20228;-75
2021/04/28 15:24:14;;;;;;;0.20;0.20;;;25.30;39.90;;;;;;4974247;28;20213;-75
2021/04/28 15:26:42;;;;;;;0.10;0.10;;;25.20;39.70;;;;;;4974374;28;20216;-75
2021/04/28 15:29:10;;;;;;;0.20;0.20;;;25.10;40.00;;;;;;4974715;28;20235;-76
2021/04/28 15:31:37;;;;;;;0.20;0.20;;;24.60;41.10;;;;;;4974343;28;20228;-73
2021/04/28 15:34:06;;;;;;;0.20;0.20;;;24.40;40.50;;;;;;4973788;28;20211;-73
2021/04/28 15:36:33;;;;;;;0.20;0.20;;;24.30;41.10;;;;;;4974080;28;20614;-73
2021/04/28 15:39:01;;;;;;;0.20;0.20;;;23.70;50.30;;;;;;4973240;28;20204;-72
2021/04/28 15:41:28;;;;;;;0.10;0.10;;;23.70;41.00;;;;;;4974040;28;20224;-74
2021/04/28 15:43:57;;;;;;;0.10;0.10;;;23.50;40.70;;;;;;4973622;28;20216;-75
2021/04/28 15:46:25;;;;;;;0.10;0.10;;;23.50;41.00;;;;;;4973874;28;20232;-70
2021/04/28 15:48:52;;;;;;;0.10;0.10;;;23.30;41.50;;;;;;4976365;28;20288;-72
2021/04/28 15:51:20;;;;;;;0.10;0.10;;;23.00;41.40;;;;;;4973537;28;20235;-73
2021/04/28 15:53:49;;;;;;;0.20;0.20;;;23.30;41.10;;;;;;4973315;28;20217;-73
2021/04/28 15:56:16;;;;;;;0.10;0.10;;;23.70;40.50;;;;;;4973714;28;20201;-73
2021/04/28 15:58:43;;;;;;;0.10;0.10;;;24.50;39.50;;;;;;4973382;28;20574;-73
2021/04/28 16:01:10;;;;;;;0.10;0.10;;;25.20;45.90;;;;;;4984775;28;20274;-72
2021/04/28 16:03:38;;;;;;;0.10;0.10;;;25.60;38.00;;;;;;4993713;28;20211;-72
2021/04/28 16:06:05;;;;;;;0.20;0.20;;;26.10;37.90;;;;;;4993134;28;20219;-72
2021/04/28 16:08:32;;;;;;;0.10;0.10;;;26.10;37.60;;;;;;4977721;28;20209;-75
2021/04/28 16:10:59;;;;;;;0.10;0.10;;;25.90;37.90;;;;;;4973568;28;20441;-74
2021/04/28 16:13:26;;;;;;;0.10;0.10;;;26.00;38.10;;;;;;4973428;28;20208;-75
2021/04/28 16:15:53;;;;;;;0.13;0.13;;;26.00;37.60;;;;;;4973514;28;20251;-75
2021/04/28 16:18:20;;;;;;;0.13;0.13;;;26.10;37.30;;;;;;4973799;28;20661;-76
2021/04/28 16:20:48;;;;;;;0.10;0.10;;;26.00;37.70;;;;;;4973677;28;20228;-74
2021/04/28 16:23:15;;;;;;;0.10;0.10;;;25.80;38.00;;;;;;4974552;28;20212;-75
2021/04/28 16:25:42;;;;;;;0.10;0.10;;;25.50;38.50;;;;;;5003153;23;20235;-79
2021/04/28 16:28:09;;;;;;;0.10;0.10;;;25.90;37.60;;;;;;4981271;28;20649;-78
2021/04/28 16:30:36;;;;;;;0.10;0.10;;;26.70;36.60;;;;;;4976541;28;20205;-77
2021/04/28 16:33:04;;;;;;;0.10;0.10;;;27.40;35.10;;;;;;4973719;28;20240;-76
2021/04/28 16:35:31;;;;;;;0.10;0.10;;;27.60;35.60;;;;;;4965448;28;20572;-75
2021/04/28 16:38:00;;;;;;;0.00;0.00;;;28.00;34.40;;;;;;4954390;28;20208;-77
2021/04/28 16:40:29;;;;;;;0.10;0.10;;;;;;;;;;4954237;28;20205;-76
2021/04/28 16:42:57;;;;;;;0.10;0.10;;;;;;;;;;4954717;28;20256;-77
2021/04/28 16:45:23;;;;;;;0.10;0.10;;;28.90;45.50;;;;;;4954184;28;20288;-74
2021/04/28 16:47:50;;;;;;;0.10;0.10;;;29.00;32.50;;;;;;4953874;29;20205;-75
2021/04/28 16:50:18;;;;;;;0.10;0.10;;;29.20;31.90;;;;;;4953817;28;20295;-75
2021/04/28 16:52:45;;;;;;;0.10;0.10;;;28.50;32.30;;;;;;4953427;28;20201;-76
2021/04/28 16:55:14;;;;;;;0.10;0.10;;;28.70;31.80;;;;;;4953663;28;20225;-73
2021/04/28 16:57:41;;;;;;;0.10;0.10;;;28.60;32.20;;;;;;4953832;28;20208;-73
2021/04/28 17:00:09;;;;;;;0.10;0.10;;;28.50;32.40;;;;;;4953760;28;20572;-76
2021/04/28 17:02:36;;;;;;;0.10;0.10;;;28.40;32.70;;;;;;4953853;28;20256;-74
2021/04/28 17:05:04;;;;;;;0.10;0.10;;;28.00;32.30;;;;;;4953353;28;20259;-74
2021/04/28 17:07:31;;;;;;;0.10;0.10;;;27.60;32.50;;;;;;4953404;28;20205;-75
2021/04/28 17:09:58;;;;;;;0.20;0.20;;;27.30;32.60;;;;;;4953803;28;20228;-74
2021/04/28 17:12:26;;;;;;;0.13;0.13;;;26.70;33.60;;;;;;4953733;28;20208;-74